Home   Weather   Germany   Wiesbaden   Past weeks
Flag for Germany

Past Weather in Wiesbaden, Hesse, Germany — October 2020

Currently: 66 °F. Scattered clouds. (Weather station: Wiesbaden Airport, Germany). See more current weather

October 2020 Weather in Wiesbaden — Graph

°F

High & Low Weather Summary for October 2020

 TemperatureHumidityPressure
High69 °F (Oct 22, 1:56 pm)100% (Oct 1, 6:56 am)30.29 "Hg (Oct 1, 6:56 am)
Low35 °F (Oct 20, 5:56 am)41% (Oct 10, 3:56 pm)29.15 "Hg (Oct 3, 2:56 am)
Average52 °F83%29.90 "Hg
* Reported Oct 1 12:56 am — Oct 31 11:56 pm, Wiesbaden. Weather by CustomWeather, © 2022

Note: Actual official high and low records may vary slightly from our data, if they occured in-between our weather recording intervals... More about our weather records

Wiesbaden Weather History for October 1, 2020

Scroll right to see more
 ConditionsComfort  
Time TempWeatherWind HumidityBarometerVisibility
12:56 am
Thu, Oct 1
55 °FClear.6 mph88%29.87 "HgN/A
1:56 am54 °FClear.6 mph88%29.83 "HgN/A
2:56 am54 °FClear.5 mph88%29.80 "HgN/A
3:56 am52 °FClear.6 mph92%29.78 "HgN/A
4:56 am52 °FClear.5 mph92%29.77 "HgN/A
5:56 am51 °FPassing clouds.5 mph93%29.75 "HgN/A
6:56 am50 °FClear.3 mph100%29.74 "HgN/A
8:06 am52 °FPartly sunny.3 mph94%29.73 "HgN/A
8:56 am53 °FPassing clouds.No wind94%29.72 "HgN/A
9:06 am54 °FBroken clouds.No wind94%29.72 "HgN/A
9:24 am54 °FOvercast.No wind94%29.72 "HgN/A
9:59 am54 °FFog.3 mph94%29.71 "Hg1 mi
10:22 am55 °FFog.5 mph88%29.70 "Hg6 mi
10:56 am55 °FOvercast.7 mph88%29.69 "HgN/A
12:00 pm57 °FFog.6 mph82%29.69 "Hg5 mi
12:56 pm57 °FPartly sunny.No wind82%29.67 "HgN/A
1:20 pm58 °FFog.No wind80%29.67 "Hg3 mi
1:56 pm59 °FMostly cloudy.5 mph77%29.65 "HgN/A
2:56 pm61 °FMostly cloudy.6 mph73%29.62 "HgN/A
3:56 pm61 °FLight rain. Partly sunny.6 mph72%29.62 "HgN/A
4:46 pm59 °FLight rain. Mostly cloudy.7 mph88%29.62 "HgN/A
5:00 pm59 °FMostly cloudy.10 mph88%29.62 "HgN/A
5:40 pm59 °FOvercast.8 mph88%29.63 "HgN/A
5:56 pm59 °FOvercast.5 mph88%29.62 "HgN/A
6:06 pm59 °FOvercast.5 mph88%29.62 "HgN/A
6:26 pm59 °FCloudy.7 mph88%29.62 "HgN/A
6:36 pm59 °FCloudy.6 mph82%29.62 "HgN/A
6:56 pm59 °FMostly cloudy.6 mph82%29.62 "HgN/A
7:46 pm57 °FPassing clouds.6 mph88%29.63 "HgN/A
7:56 pm57 °FPassing clouds.6 mph83%29.63 "HgN/A
8:06 pm57 °FPassing clouds.6 mph82%29.63 "HgN/A
8:56 pm55 °FPassing clouds.6 mph88%29.63 "HgN/A
9:56 pm55 °FMostly cloudy.7 mph88%29.63 "HgN/A
10:56 pm56 °FPassing clouds.8 mph82%29.62 "HgN/A
11:36 pm54 °FPassing clouds.5 mph88%29.61 "HgN/A
Weather by CustomWeather, © 2022

See weather overview